VTBDVYYY

Guest
Details From VTBD - Bangkok Don Mueang Intl
To VYYY - Yangon Intl
Flight Number -
Tags Generated
Created
Modified
Stats Distance 317 nm / 588 km
Max Altitude 0 ft / 0 m
Waypoints 3
Social Downloads 0
Likes 0
Share VATSIM

Download

Looking for another format? Having issues loading an existing format? Contact us
Advertisement - Login to hide

Notes

Generated

Route

VTBD MDS VYYY

ID Type Via Altitude Latitude Longitude Leg Dist Tot Dist Heading (true) Name
O VTBD APT - 0 ft / 0 m 13.89960˚ 100.60162˚ - 0 nm - -
MDS NDB - 0 ft / 0 m 16.87464˚ 96.10983˚ 315 nm 315 nm 305° / 304° MINGALADON NDB
O VYYY APT - 0 ft / 0 m 16.89803˚ 96.12694˚ 1 nm 317 nm 35° / 35° -

Altitude Profile

Advertisement - Login to hide

Weather


0- 5 10 15 20 25 30 35+ Temperature / ° C

Clouds and Precipitation
Forecast for 2017-12-12 18:00 UTC. Updated an hour ago

Ground ~20,000 ft ~40,000 ft Winds

VTBD

Details ICAO VTBD (DMK)
Name Bangkok Don Mueang Intl
Region Thailand
Timezone Asia/Bangkok (UTC+7.0)
Stats Elevation 9 ft / 3 m (AMSL)
Location 13.912597° 100.606799°
Runways 2
Magnetic Variation 0.582° W

METAR

VTBD 121830Z 19006KT 9000 NSC 27/25 Q1011 NOSIG

Decode

TAF

TAF VTBD 121700Z 1218/1324 19005KT 8000 FEW040 BECMG 1222/1224 12003KT 3000 BR FEW025 TEMPO 1223/1301 1500 BR BECMG 1302/1304 19008KT 9999 NSW BECMG 1316/1318 13005KT FEW040

Decode

Departure Runways

ID Width Length Bearing (true) Bearing (mag) Surface Threshold Offset Overrun Length
03L 197 ft / 60 m 12,186 ft / 3,714 m 28.55° 29.13° Asphalt 0 ft / 0 m 492 ft / 150 m
03R 148 ft / 45 m 11,520 ft / 3,511 m 28.50° 29.08° Asphalt 0 ft / 0 m 348 ft / 106 m
21L 148 ft / 45 m 11,520 ft / 3,511 m 208.50° 209.08° Asphalt 1,145 ft / 349 m 180 ft / 55 m
21R 197 ft / 60 m 12,186 ft / 3,714 m 208.55° 209.13° Asphalt 0 ft / 0 m 492 ft / 150 m

VYYY

Details ICAO VYYY (RGN)
Name YANGON INTL
Region Myanmar
Timezone Asia/Rangoon (UTC+6.5)
Stats Elevation 109 ft / 33 m (AMSL)
Location 16.910841° 96.135680°
Runways 1
Magnetic Variation 0.635° W

METAR

Not found

TAF

TAF TAF VYYY 121700Z 1218/1318 29005KT 7000 SCT015 SCT110 TEMPO 1218/1222 NSC BECMG 1300/1302 4000 BR

Decode

Destination Runways

ID Width Length Bearing (true) Bearing (mag) Surface Threshold Offset Overrun Length
03 200 ft / 61 m 11,251 ft / 3,429 m 33.10° 33.73° Asphalt 0 ft / 0 m 194 ft / 59 m
21 200 ft / 61 m 11,251 ft / 3,429 m 213.10° 213.73° Asphalt 276 ft / 84 m 0 ft / 0 m

Approach Navaids

Runway Type Ident Frequency Range Bearing (true) Bearing (mag) Slope Elevation
21 Localiser IYGN 109.90 MHz 18 nm / 33 km 213.02° 213.66° - 65 ft / 20 m (AMSL)
21 Glidescope IYGN 109.90 MHz 10 nm / 19 km 213.10° 213.73° 3.00° 65 ft / 20 m (AMSL)
21 DME IYGN 109.90 MHz 18 nm / 33 km - - - 50 ft / 15 m (AMSL)

Popular Alternatives